sensor_id;sensor_type;location;lat;lon;timestamp;P1;durP1;ratioP1;P2;durP2;ratioP2
10293;SDS011;5192;50.328;7.610;2022-10-30T00:02:13;16.67;;;10.57;;
10293;SDS011;5192;50.328;7.610;2022-10-30T00:04:40;17.57;;;9.57;;
10293;SDS011;5192;50.328;7.610;2022-10-30T00:07:12;16.13;;;10.33;;
10293;SDS011;5192;50.328;7.610;2022-10-30T00:09:41;15.93;;;9.50;;
10293;SDS011;5192;50.328;7.610;2022-10-30T00:12:12;12.67;;;9.00;;
10293;SDS011;5192;50.328;7.610;2022-10-30T00:14:40;16.47;;;9.13;;
10293;SDS011;5192;50.328;7.610;2022-10-30T00:17:06;16.43;;;8.80;;
10293;SDS011;5192;50.328;7.610;2022-10-30T00:19:40;14.97;;;9.10;;
10293;SDS011;5192;50.328;7.610;2022-10-30T00:22:05;14.93;;;9.83;;
10293;SDS011;5192;50.328;7.610;2022-10-30T00:24:36;12.33;;;9.33;;
10293;SDS011;5192;50.328;7.610;2022-10-30T00:27:04;18.87;;;10.27;;
10293;SDS011;5192;50.328;7.610;2022-10-30T00:29:31;16.93;;;9.33;;
10293;SDS011;5192;50.328;7.610;2022-10-30T00:31:58;16.93;;;8.47;;
10293;SDS011;5192;50.328;7.610;2022-10-30T00:34:24;17.17;;;8.07;;
10293;SDS011;5192;50.328;7.610;2022-10-30T00:37:03;16.10;;;8.73;;
10293;SDS011;5192;50.328;7.610;2022-10-30T00:39:31;12.00;;;7.70;;
10293;SDS011;5192;50.328;7.610;2022-10-30T00:42:00;19.03;;;8.43;;
10293;SDS011;5192;50.328;7.610;2022-10-30T00:47:22;17.70;;;7.90;;
10293;SDS011;5192;50.328;7.610;2022-10-30T00:50:12;14.73;;;7.80;;
10293;SDS011;5192;50.328;7.610;2022-10-30T00:53:13;12.07;;;7.17;;
10293;SDS011;5192;50.328;7.610;2022-10-30T00:55:43;15.23;;;6.97;;
10293;SDS011;5192;50.328;7.610;2022-10-30T00:58:26;13.33;;;6.77;;
10293;SDS011;5192;50.328;7.610;2022-10-30T01:01:49;12.57;;;7.20;;
10293;SDS011;5192;50.328;7.610;2022-10-30T01:04:25;13.40;;;6.97;;
10293;SDS011;5192;50.328;7.610;2022-10-30T01:07:12;12.33;;;7.20;;
10293;SDS011;5192;50.328;7.610;2022-10-30T01:09:41;13.33;;;7.57;;
10293;SDS011;5192;50.328;7.610;2022-10-30T01:12:31;15.90;;;6.70;;
10293;SDS011;5192;50.328;7.610;2022-10-30T01:14:59;13.47;;;7.50;;
10293;SDS011;5192;50.328;7.610;2022-10-30T01:17:30;9.90;;;6.73;;
10293;SDS011;5192;50.328;7.610;2022-10-30T01:20:26;13.73;;;7.17;;
10293;SDS011;5192;50.328;7.610;2022-10-30T01:23:36;15.57;;;6.63;;
10293;SDS011;5192;50.328;7.610;2022-10-30T01:35:43;17.87;;;7.70;;
10293;SDS011;5192;50.328;7.610;2022-10-30T01:38:43;12.87;;;7.27;;
10293;SDS011;5192;50.328;7.610;2022-10-30T01:41:17;14.33;;;7.40;;
10293;SDS011;5192;50.328;7.610;2022-10-30T01:43:45;15.90;;;7.70;;
10293;SDS011;5192;50.328;7.610;2022-10-30T02:01:31;17.57;;;9.23;;
10293;SDS011;5192;50.328;7.610;2022-10-30T02:04:01;15.87;;;9.00;;
10293;SDS011;5192;50.328;7.610;2022-10-30T02:06:31;16.90;;;9.50;;
10293;SDS011;5192;50.328;7.610;2022-10-30T02:09:00;14.57;;;9.77;;
10293;SDS011;5192;50.328;7.610;2022-10-30T02:11:31;16.17;;;8.73;;
10293;SDS011;5192;50.328;7.610;2022-10-30T02:14:01;15.00;;;8.53;;
10293;SDS011;5192;50.328;7.610;2022-10-30T02:16:34;12.63;;;7.30;;
10293;SDS011;5192;50.328;7.610;2022-10-30T02:19:18;11.80;;;7.40;;
10293;SDS011;5192;50.328;7.610;2022-10-30T02:21:51;12.30;;;7.40;;
10293;SDS011;5192;50.328;7.610;2022-10-30T02:24:17;15.33;;;7.57;;
10293;SDS011;5192;50.328;7.610;2022-10-30T02:26:45;11.97;;;7.00;;
10293;SDS011;5192;50.328;7.610;2022-10-30T02:29:17;9.47;;;7.07;;
10293;SDS011;5192;50.328;7.610;2022-10-30T02:31:50;12.43;;;6.70;;
10293;SDS011;5192;50.328;7.610;2022-10-30T02:34:18;13.97;;;7.00;;
10293;SDS011;5192;50.328;7.610;2022-10-30T02:36:44;8.67;;;7.50;;
10293;SDS011;5192;50.328;7.610;2022-10-30T02:39:23;14.13;;;8.90;;
10293;SDS011;5192;50.328;7.610;2022-10-30T02:41:51;13.33;;;9.10;;
10293;SDS011;5192;50.328;7.610;2022-10-30T02:44:20;12.23;;;8.97;;
10293;SDS011;5192;50.328;7.610;2022-10-30T02:46:46;13.00;;;8.20;;
10293;SDS011;5192;50.328;7.610;2022-10-30T02:49:16;11.70;;;8.70;;
10293;SDS011;5192;50.328;7.610;2022-10-30T02:51:42;15.60;;;8.43;;
10293;SDS011;5192;50.328;7.610;2022-10-30T02:54:12;14.43;;;8.53;;
10293;SDS011;5192;50.328;7.610;2022-10-30T02:56:40;14.17;;;8.07;;
10293;SDS011;5192;50.328;7.610;2022-10-30T02:59:08;12.33;;;8.13;;
10293;SDS011;5192;50.328;7.610;2022-10-30T03:01:37;10.77;;;8.43;;
10293;SDS011;5192;50.328;7.610;2022-10-30T03:04:04;13.67;;;9.07;;
10293;SDS011;5192;50.328;7.610;2022-10-30T03:06:33;13.23;;;8.17;;
10293;SDS011;5192;50.328;7.610;2022-10-30T03:09:01;14.13;;;8.60;;
10293;SDS011;5192;50.328;7.610;2022-10-30T03:11:32;16.57;;;8.03;;
10293;SDS011;5192;50.328;7.610;2022-10-30T03:14:02;14.97;;;8.23;;
10293;SDS011;5192;50.328;7.610;2022-10-30T03:16:31;15.53;;;8.43;;
10293;SDS011;5192;50.328;7.610;2022-10-30T03:19:01;14.13;;;7.83;;
10293;SDS011;5192;50.328;7.610;2022-10-30T03:21:33;17.87;;;8.73;;
10293;SDS011;5192;50.328;7.610;2022-10-30T03:24:01;11.53;;;7.90;;
10293;SDS011;5192;50.328;7.610;2022-10-30T03:26:29;15.03;;;7.40;;
10293;SDS011;5192;50.328;7.610;2022-10-30T03:28:59;16.17;;;7.50;;
10293;SDS011;5192;50.328;7.610;2022-10-30T03:31:25;14.67;;;7.90;;
10293;SDS011;5192;50.328;7.610;2022-10-30T03:33:51;13.60;;;7.13;;
10293;SDS011;5192;50.328;7.610;2022-10-30T03:36:20;14.87;;;8.20;;
10293;SDS011;5192;50.328;7.610;2022-10-30T03:38:45;18.70;;;8.30;;
10293;SDS011;5192;50.328;7.610;2022-10-30T03:41:19;11.53;;;7.73;;
10293;SDS011;5192;50.328;7.610;2022-10-30T03:43:46;13.57;;;8.10;;
10293;SDS011;5192;50.328;7.610;2022-10-30T03:46:11;19.87;;;8.57;;
10293;SDS011;5192;50.328;7.610;2022-10-30T03:48:41;14.60;;;7.90;;
10293;SDS011;5192;50.328;7.610;2022-10-30T03:51:15;14.43;;;7.93;;
10293;SDS011;5192;50.328;7.610;2022-10-30T03:53:42;13.53;;;7.93;;
10293;SDS011;5192;50.328;7.610;2022-10-30T03:56:11;13.97;;;8.97;;
10293;SDS011;5192;50.328;7.610;2022-10-30T03:58:42;13.10;;;8.30;;
10293;SDS011;5192;50.328;7.610;2022-10-30T04:01:13;12.33;;;7.90;;
10293;SDS011;5192;50.328;7.610;2022-10-30T04:03:40;14.83;;;7.40;;
10293;SDS011;5192;50.328;7.610;2022-10-30T04:06:13;11.50;;;6.93;;
10293;SDS011;5192;50.328;7.610;2022-10-30T04:08:40;10.27;;;6.80;;
10293;SDS011;5192;50.328;7.610;2022-10-30T04:11:12;15.40;;;7.47;;
10293;SDS011;5192;50.328;7.610;2022-10-30T04:13:42;11.63;;;6.70;;
10293;SDS011;5192;50.328;7.610;2022-10-30T04:16:11;10.13;;;6.33;;
10293;SDS011;5192;50.328;7.610;2022-10-30T04:19:00;11.60;;;6.90;;
10293;SDS011;5192;50.328;7.610;2022-10-30T04:21:28;18.23;;;7.03;;
10293;SDS011;5192;50.328;7.610;2022-10-30T04:24:11;10.23;;;6.63;;
10293;SDS011;5192;50.328;7.610;2022-10-30T04:26:41;14.43;;;7.63;;
10293;SDS011;5192;50.328;7.610;2022-10-30T04:29:14;15.37;;;7.17;;
10293;SDS011;5192;50.328;7.610;2022-10-30T04:31:40;13.20;;;7.13;;
10293;SDS011;5192;50.328;7.610;2022-10-30T04:34:15;12.07;;;6.43;;
10293;SDS011;5192;50.328;7.610;2022-10-30T04:36:41;13.57;;;7.57;;
10293;SDS011;5192;50.328;7.610;2022-10-30T04:39:11;11.20;;;8.07;;
10293;SDS011;5192;50.328;7.610;2022-10-30T04:41:37;12.73;;;8.47;;
10293;SDS011;5192;50.328;7.610;2022-10-30T04:44:03;18.30;;;8.80;;
10293;SDS011;5192;50.328;7.610;2022-10-30T04:46:33;14.23;;;8.87;;
10293;SDS011;5192;50.328;7.610;2022-10-30T04:48:59;12.73;;;8.43;;
10293;SDS011;5192;50.328;7.610;2022-10-30T04:51:26;17.73;;;8.60;;
10293;SDS011;5192;50.328;7.610;2022-10-30T04:53:58;15.57;;;9.50;;
10293;SDS011;5192;50.328;7.610;2022-10-30T04:56:26;16.57;;;9.47;;
10293;SDS011;5192;50.328;7.610;2022-10-30T04:59:00;14.83;;;9.00;;
10293;SDS011;5192;50.328;7.610;2022-10-30T05:01:33;19.33;;;10.77;;
10293;SDS011;5192;50.328;7.610;2022-10-30T05:03:58;14.73;;;9.17;;
10293;SDS011;5192;50.328;7.610;2022-10-30T05:06:32;13.43;;;9.10;;
10293;SDS011;5192;50.328;7.610;2022-10-30T05:08:57;16.47;;;10.30;;
10293;SDS011;5192;50.328;7.610;2022-10-30T05:11:26;17.30;;;9.57;;
10293;SDS011;5192;50.328;7.610;2022-10-30T05:14:00;15.40;;;10.23;;
10293;SDS011;5192;50.328;7.610;2022-10-30T05:16:34;16.67;;;9.50;;
10293;SDS011;5192;50.328;7.610;2022-10-30T05:18:59;16.47;;;10.00;;
10293;SDS011;5192;50.328;7.610;2022-10-30T05:21:35;17.23;;;9.80;;
10293;SDS011;5192;50.328;7.610;2022-10-30T05:24:04;14.17;;;10.30;;
10293;SDS011;5192;50.328;7.610;2022-10-30T05:26:33;17.80;;;10.37;;
10293;SDS011;5192;50.328;7.610;2022-10-30T05:29:00;11.90;;;9.37;;
10293;SDS011;5192;50.328;7.610;2022-10-30T05:31:33;18.13;;;9.77;;
10293;SDS011;5192;50.328;7.610;2022-10-30T05:33:58;12.30;;;9.33;;
10293;SDS011;5192;50.328;7.610;2022-10-30T05:36:25;13.53;;;9.47;;
10293;SDS011;5192;50.328;7.610;2022-10-30T05:38:51;15.23;;;9.70;;
10293;SDS011;5192;50.328;7.610;2022-10-30T05:41:21;14.97;;;8.97;;
10293;SDS011;5192;50.328;7.610;2022-10-30T05:43:53;13.30;;;8.77;;
10293;SDS011;5192;50.328;7.610;2022-10-30T05:46:21;11.00;;;8.37;;
10293;SDS011;5192;50.328;7.610;2022-10-30T05:48:53;17.43;;;9.43;;
10293;SDS011;5192;50.328;7.610;2022-10-30T05:51:21;17.10;;;9.57;;
10293;SDS011;5192;50.328;7.610;2022-10-30T05:53:47;15.03;;;8.83;;
10293;SDS011;5192;50.328;7.610;2022-10-30T05:56:33;14.60;;;8.83;;
10293;SDS011;5192;50.328;7.610;2022-10-30T05:58:59;17.17;;;9.47;;
10293;SDS011;5192;50.328;7.610;2022-10-30T06:01:26;13.90;;;10.03;;
10293;SDS011;5192;50.328;7.610;2022-10-30T06:03:58;14.20;;;8.83;;
10293;SDS011;5192;50.328;7.610;2022-10-30T06:06:25;15.00;;;9.37;;
10293;SDS011;5192;50.328;7.610;2022-10-30T06:08:52;16.63;;;10.13;;
10293;SDS011;5192;50.328;7.610;2022-10-30T06:11:20;14.43;;;9.63;;
10293;SDS011;5192;50.328;7.610;2022-10-30T06:13:46;16.23;;;10.97;;
10293;SDS011;5192;50.328;7.610;2022-10-30T06:16:18;16.30;;;9.50;;
10293;SDS011;5192;50.328;7.610;2022-10-30T06:18:45;15.60;;;9.93;;
10293;SDS011;5192;50.328;7.610;2022-10-30T06:21:32;12.83;;;8.47;;
10293;SDS011;5192;50.328;7.610;2022-10-30T06:24:00;15.87;;;9.60;;
10293;SDS011;5192;50.328;7.610;2022-10-30T06:26:29;16.57;;;9.87;;
10293;SDS011;5192;50.328;7.610;2022-10-30T06:28:58;18.83;;;10.07;;
10293;SDS011;5192;50.328;7.610;2022-10-30T06:31:26;17.20;;;9.50;;
10293;SDS011;5192;50.328;7.610;2022-10-30T06:33:59;14.00;;;9.33;;
10293;SDS011;5192;50.328;7.610;2022-10-30T06:36:26;14.97;;;9.27;;
10293;SDS011;5192;50.328;7.610;2022-10-30T06:38:59;15.17;;;9.80;;
10293;SDS011;5192;50.328;7.610;2022-10-30T06:41:26;15.90;;;9.50;;
10293;SDS011;5192;50.328;7.610;2022-10-30T06:44:01;17.10;;;9.87;;
10293;SDS011;5192;50.328;7.610;2022-10-30T06:46:33;15.50;;;9.50;;
10293;SDS011;5192;50.328;7.610;2022-10-30T06:49:00;18.07;;;9.30;;
10293;SDS011;5192;50.328;7.610;2022-10-30T06:51:25;15.93;;;9.77;;
10293;SDS011;5192;50.328;7.610;2022-10-30T06:53:53;14.73;;;9.70;;
10293;SDS011;5192;50.328;7.610;2022-10-30T06:56:19;14.83;;;9.33;;
10293;SDS011;5192;50.328;7.610;2022-10-30T06:58:45;13.63;;;9.30;;
10293;SDS011;5192;50.328;7.610;2022-10-30T07:01:19;15.40;;;9.73;;
10293;SDS011;5192;50.328;7.610;2022-10-30T07:03:45;14.67;;;10.07;;
10293;SDS011;5192;50.328;7.610;2022-10-30T07:06:34;16.83;;;9.93;;
10293;SDS011;5192;50.328;7.610;2022-10-30T07:09:01;16.80;;;10.57;;
10293;SDS011;5192;50.328;7.610;2022-10-30T07:11:30;14.40;;;9.70;;
10293;SDS011;5192;50.328;7.610;2022-10-30T07:13:57;12.67;;;8.77;;
10293;SDS011;5192;50.328;7.610;2022-10-30T07:16:26;15.50;;;10.60;;
10293;SDS011;5192;50.328;7.610;2022-10-30T07:18:53;12.83;;;9.33;;
10293;SDS011;5192;50.328;7.610;2022-10-30T07:21:21;11.83;;;10.07;;
10293;SDS011;5192;50.328;7.610;2022-10-30T07:23:46;13.60;;;10.00;;
10293;SDS011;5192;50.328;7.610;2022-10-30T07:26:19;14.57;;;9.90;;
10293;SDS011;5192;50.328;7.610;2022-10-30T07:28:45;15.00;;;9.70;;
10293;SDS011;5192;50.328;7.610;2022-10-30T07:31:13;11.53;;;9.03;;
10293;SDS011;5192;50.328;7.610;2022-10-30T07:33:40;12.23;;;9.20;;
10293;SDS011;5192;50.328;7.610;2022-10-30T07:36:06;16.93;;;9.57;;
10293;SDS011;5192;50.328;7.610;2022-10-30T07:38:40;16.17;;;8.80;;
10293;SDS011;5192;50.328;7.610;2022-10-30T07:41:06;18.87;;;8.93;;
10293;SDS011;5192;50.328;7.610;2022-10-30T07:43:39;13.63;;;9.33;;
10293;SDS011;5192;50.328;7.610;2022-10-30T07:46:05;17.23;;;9.50;;
10293;SDS011;5192;50.328;7.610;2022-10-30T07:48:34;16.13;;;8.67;;
10293;SDS011;5192;50.328;7.610;2022-10-30T07:51:02;14.83;;;8.23;;
10293;SDS011;5192;50.328;7.610;2022-10-30T07:53:33;15.73;;;9.67;;
10293;SDS011;5192;50.328;7.610;2022-10-30T07:56:01;15.07;;;9.20;;
10293;SDS011;5192;50.328;7.610;2022-10-30T07:58:26;16.77;;;8.60;;
10293;SDS011;5192;50.328;7.610;2022-10-30T08:01:00;12.00;;;8.90;;
10293;SDS011;5192;50.328;7.610;2022-10-30T08:03:32;15.30;;;9.13;;
10293;SDS011;5192;50.328;7.610;2022-10-30T08:06:00;15.90;;;8.87;;
10293;SDS011;5192;50.328;7.610;2022-10-30T08:08:25;12.63;;;9.00;;
10293;SDS011;5192;50.328;7.610;2022-10-30T08:11:00;16.87;;;9.37;;
10293;SDS011;5192;50.328;7.610;2022-10-30T08:13:33;15.00;;;8.07;;
10293;SDS011;5192;50.328;7.610;2022-10-30T08:16:01;13.37;;;8.83;;
10293;SDS011;5192;50.328;7.610;2022-10-30T08:18:27;13.43;;;8.37;;
10293;SDS011;5192;50.328;7.610;2022-10-30T08:21:01;15.87;;;8.50;;
10293;SDS011;5192;50.328;7.610;2022-10-30T08:23:28;14.67;;;8.50;;
10293;SDS011;5192;50.328;7.610;2022-10-30T08:26:01;11.07;;;8.20;;
10293;SDS011;5192;50.328;7.610;2022-10-30T08:28:32;12.57;;;7.87;;
10293;SDS011;5192;50.328;7.610;2022-10-30T08:31:00;16.60;;;8.40;;
10293;SDS011;5192;50.328;7.610;2022-10-30T08:33:33;18.97;;;8.47;;
10293;SDS011;5192;50.328;7.610;2022-10-30T08:36:03;17.70;;;9.93;;
10293;SDS011;5192;50.328;7.610;2022-10-30T08:38:31;13.47;;;8.23;;
10293;SDS011;5192;50.328;7.610;2022-10-30T08:41:00;11.53;;;8.07;;
10293;SDS011;5192;50.328;7.610;2022-10-30T08:43:26;13.60;;;8.47;;
10293;SDS011;5192;50.328;7.610;2022-10-30T08:46:01;10.97;;;7.33;;
10293;SDS011;5192;50.328;7.610;2022-10-30T08:48:30;9.93;;;7.73;;
10293;SDS011;5192;50.328;7.610;2022-10-30T08:51:04;14.63;;;8.33;;
10293;SDS011;5192;50.328;7.610;2022-10-30T08:53:34;13.70;;;8.10;;
10293;SDS011;5192;50.328;7.610;2022-10-30T08:56:01;12.10;;;8.20;;
10293;SDS011;5192;50.328;7.610;2022-10-30T08:58:26;13.87;;;7.23;;
10293;SDS011;5192;50.328;7.610;2022-10-30T09:00:52;13.03;;;7.60;;
10293;SDS011;5192;50.328;7.610;2022-10-30T09:03:19;13.33;;;7.43;;
10293;SDS011;5192;50.328;7.610;2022-10-30T09:05:46;15.43;;;6.97;;
10293;SDS011;5192;50.328;7.610;2022-10-30T09:08:27;10.67;;;7.13;;
10293;SDS011;5192;50.328;7.610;2022-10-30T09:10:58;8.87;;;6.50;;
10293;SDS011;5192;50.328;7.610;2022-10-30T09:13:26;13.37;;;6.80;;
10293;SDS011;5192;50.328;7.610;2022-10-30T09:16:00;12.10;;;7.60;;
10293;SDS011;5192;50.328;7.610;2022-10-30T09:18:28;17.03;;;7.23;;
10293;SDS011;5192;50.328;7.610;2022-10-30T09:20:57;10.07;;;6.60;;
10293;SDS011;5192;50.328;7.610;2022-10-30T09:23:25;11.37;;;6.30;;
10293;SDS011;5192;50.328;7.610;2022-10-30T09:25:51;11.07;;;6.60;;
10293;SDS011;5192;50.328;7.610;2022-10-30T09:28:26;10.13;;;6.97;;
10293;SDS011;5192;50.328;7.610;2022-10-30T09:31:19;9.80;;;6.07;;
10293;SDS011;5192;50.328;7.610;2022-10-30T09:33:46;9.67;;;6.20;;
10293;SDS011;5192;50.328;7.610;2022-10-30T09:36:34;14.27;;;6.50;;
10293;SDS011;5192;50.328;7.610;2022-10-30T09:39:02;11.40;;;6.60;;
10293;SDS011;5192;50.328;7.610;2022-10-30T09:44:32;11.23;;;6.90;;
10293;SDS011;5192;50.328;7.610;2022-10-30T09:47:41;11.73;;;6.30;;
10293;SDS011;5192;50.328;7.610;2022-10-30T09:50:35;13.43;;;6.23;;
10293;SDS011;5192;50.328;7.610;2022-10-30T09:53:33;10.00;;;6.03;;
10293;SDS011;5192;50.328;7.610;2022-10-30T09:56:58;10.10;;;5.90;;
10293;SDS011;5192;50.328;7.610;2022-10-30T10:02:35;9.07;;;6.03;;
10293;SDS011;5192;50.328;7.610;2022-10-30T10:05:16;9.53;;;5.17;;
10293;SDS011;5192;50.328;7.610;2022-10-30T10:08:03;11.33;;;6.00;;
10293;SDS011;5192;50.328;7.610;2022-10-30T10:10:37;8.97;;;6.43;;
10293;SDS011;5192;50.328;7.610;2022-10-30T10:21:46;9.67;;;5.70;;
10293;SDS011;5192;50.328;7.610;2022-10-30T10:24:59;8.03;;;6.23;;
10293;SDS011;5192;50.328;7.610;2022-10-30T10:39:29;10.33;;;5.83;;
10293;SDS011;5192;50.328;7.610;2022-10-30T10:42:47;12.23;;;6.43;;
10293;SDS011;5192;50.328;7.610;2022-10-30T10:54:21;8.77;;;5.20;;
10293;SDS011;5192;50.328;7.610;2022-10-30T10:57:15;9.63;;;6.33;;
10293;SDS011;5192;50.328;7.610;2022-10-30T11:00:05;10.73;;;5.10;;
10293;SDS011;5192;50.328;7.610;2022-10-30T11:06:01;9.37;;;5.17;;
10293;SDS011;5192;50.328;7.610;2022-10-30T11:08:34;9.60;;;5.20;;
10293;SDS011;5192;50.328;7.610;2022-10-30T11:11:03;9.80;;;5.25;;
10293;SDS011;5192;50.328;7.610;2022-10-30T11:13:36;9.52;;;5.65;;
10293;SDS011;5192;50.328;7.610;2022-10-30T11:19:14;10.73;;;5.20;;
10293;SDS011;5192;50.328;7.610;2022-10-30T11:21:44;9.73;;;4.90;;
10293;SDS011;5192;50.328;7.610;2022-10-30T11:24:32;9.50;;;5.82;;
10293;SDS011;5192;50.328;7.610;2022-10-30T11:29:56;8.77;;;5.32;;
10293;SDS011;5192;50.328;7.610;2022-10-30T11:32:32;11.38;;;5.85;;
10293;SDS011;5192;50.328;7.610;2022-10-30T11:35:17;7.97;;;5.55;;
10293;SDS011;5192;50.328;7.610;2022-10-30T11:37:48;8.00;;;5.35;;
10293;SDS011;5192;50.328;7.610;2022-10-30T11:40:45;10.57;;;6.13;;
10293;SDS011;5192;50.328;7.610;2022-10-30T11:43:26;8.82;;;5.43;;
10293;SDS011;5192;50.328;7.610;2022-10-30T11:46:00;8.40;;;4.70;;
10293;SDS011;5192;50.328;7.610;2022-10-30T11:48:32;8.85;;;5.57;;
10293;SDS011;5192;50.328;7.610;2022-10-30T11:51:02;7.68;;;4.85;;
10293;SDS011;5192;50.328;7.610;2022-10-30T11:56:20;10.88;;;5.07;;
10293;SDS011;5192;50.328;7.610;2022-10-30T11:58:53;10.98;;;5.07;;
10293;SDS011;5192;50.328;7.610;2022-10-30T12:01:34;7.72;;;5.22;;
10293;SDS011;5192;50.328;7.610;2022-10-30T12:09:52;9.30;;;4.95;;
10293;SDS011;5192;50.328;7.610;2022-10-30T12:15:17;8.93;;;4.78;;
10293;SDS011;5192;50.328;7.610;2022-10-30T12:18:03;12.55;;;5.82;;
10293;SDS011;5192;50.328;7.610;2022-10-30T12:20:53;11.02;;;5.47;;
10293;SDS011;5192;50.328;7.610;2022-10-30T12:23:29;10.68;;;5.43;;
10293;SDS011;5192;50.328;7.610;2022-10-30T12:26:11;11.05;;;5.70;;
10293;SDS011;5192;50.328;7.610;2022-10-30T12:28:40;9.82;;;6.13;;
10293;SDS011;5192;50.328;7.610;2022-10-30T12:31:37;9.77;;;6.47;;
10293;SDS011;5192;50.328;7.610;2022-10-30T12:37:34;9.07;;;5.25;;
10293;SDS011;5192;50.328;7.610;2022-10-30T12:40:26;9.90;;;4.85;;
10293;SDS011;5192;50.328;7.610;2022-10-30T12:43:25;10.63;;;5.32;;
10293;SDS011;5192;50.328;7.610;2022-10-30T12:52:05;10.10;;;5.47;;
10293;SDS011;5192;50.328;7.610;2022-10-30T13:01:11;11.77;;;4.63;;
10293;SDS011;5192;50.328;7.610;2022-10-30T13:03:55;7.18;;;4.68;;
10293;SDS011;5192;50.328;7.610;2022-10-30T13:12:47;8.32;;;4.95;;
10293;SDS011;5192;50.328;7.610;2022-10-30T13:15:50;8.68;;;4.82;;
10293;SDS011;5192;50.328;7.610;2022-10-30T13:18:26;7.78;;;4.93;;
10293;SDS011;5192;50.328;7.610;2022-10-30T13:26:56;12.48;;;5.05;;
10293;SDS011;5192;50.328;7.610;2022-10-30T13:29:37;9.32;;;5.28;;
10293;SDS011;5192;50.328;7.610;2022-10-30T13:38:45;10.18;;;4.93;;
10293;SDS011;5192;50.328;7.610;2022-10-30T13:52:53;12.02;;;5.35;;
10293;SDS011;5192;50.328;7.610;2022-10-30T13:55:33;9.85;;;5.47;;
10293;SDS011;5192;50.328;7.610;2022-10-30T14:15:44;11.35;;;5.90;;
10293;SDS011;5192;50.328;7.610;2022-10-30T14:21:28;10.25;;;5.43;;
10293;SDS011;5192;50.328;7.610;2022-10-30T14:24:14;10.23;;;5.88;;
10293;SDS011;5192;50.328;7.610;2022-10-30T14:34:57;14.65;;;5.78;;
10293;SDS011;5192;50.328;7.610;2022-10-30T14:43:16;10.35;;;5.90;;
10293;SDS011;5192;50.328;7.610;2022-10-30T14:46:02;8.77;;;5.90;;
10293;SDS011;5192;50.328;7.610;2022-10-30T14:48:58;10.85;;;5.68;;
10293;SDS011;5192;50.328;7.610;2022-10-30T14:52:28;10.32;;;5.47;;
10293;SDS011;5192;50.328;7.610;2022-10-30T15:06:49;9.25;;;5.00;;
10293;SDS011;5192;50.328;7.610;2022-10-30T15:15:15;7.07;;;5.32;;
10293;SDS011;5192;50.328;7.610;2022-10-30T15:17:51;12.05;;;6.00;;
10293;SDS011;5192;50.328;7.610;2022-10-30T15:20:25;9.85;;;5.55;;
10293;SDS011;5192;50.328;7.610;2022-10-30T15:23:18;10.45;;;5.75;;
10293;SDS011;5192;50.328;7.610;2022-10-30T15:25:53;13.63;;;6.13;;
10293;SDS011;5192;50.328;7.610;2022-10-30T15:28:25;10.80;;;5.13;;
10293;SDS011;5192;50.328;7.610;2022-10-30T15:33:53;10.70;;;5.97;;
10293;SDS011;5192;50.328;7.610;2022-10-30T15:36:23;11.93;;;5.47;;
10293;SDS011;5192;50.328;7.610;2022-10-30T15:39:11;10.37;;;5.40;;
10293;SDS011;5192;50.328;7.610;2022-10-30T15:47:19;10.33;;;5.70;;
10293;SDS011;5192;50.328;7.610;2022-10-30T15:49:47;9.47;;;5.33;;
10293;SDS011;5192;50.328;7.610;2022-10-30T15:52:34;9.30;;;5.13;;
10293;SDS011;5192;50.328;7.610;2022-10-30T15:55:14;7.57;;;5.10;;
10293;SDS011;5192;50.328;7.610;2022-10-30T15:57:48;12.87;;;5.00;;
10293;SDS011;5192;50.328;7.610;2022-10-30T16:03:15;11.23;;;5.10;;
10293;SDS011;5192;50.328;7.610;2022-10-30T16:05:43;10.03;;;5.43;;
10293;SDS011;5192;50.328;7.610;2022-10-30T16:08:19;9.77;;;5.03;;
10293;SDS011;5192;50.328;7.610;2022-10-30T16:10:59;7.70;;;4.90;;
10293;SDS011;5192;50.328;7.610;2022-10-30T16:13:27;6.93;;;4.07;;
10293;SDS011;5192;50.328;7.610;2022-10-30T16:16:01;9.23;;;4.83;;
10293;SDS011;5192;50.328;7.610;2022-10-30T16:18:47;13.80;;;4.97;;
10293;SDS011;5192;50.328;7.610;2022-10-30T16:21:34;10.63;;;5.07;;
10293;SDS011;5192;50.328;7.610;2022-10-30T16:24:01;7.87;;;4.47;;
10293;SDS011;5192;50.328;7.610;2022-10-30T16:26:36;11.23;;;4.57;;
10293;SDS011;5192;50.328;7.610;2022-10-30T16:31:56;23.70;;;13.50;;
10293;SDS011;5192;50.328;7.610;2022-10-30T16:34:27;21.53;;;13.50;;
10293;SDS011;5192;50.328;7.610;2022-10-30T16:37:18;17.50;;;10.70;;
10293;SDS011;5192;50.328;7.610;2022-10-30T16:39:53;10.63;;;5.90;;
10293;SDS011;5192;50.328;7.610;2022-10-30T16:42:35;11.63;;;5.30;;
10293;SDS011;5192;50.328;7.610;2022-10-30T16:47:51;8.87;;;4.47;;
10293;SDS011;5192;50.328;7.610;2022-10-30T16:50:41;7.53;;;4.27;;
10293;SDS011;5192;50.328;7.610;2022-10-30T16:55:59;8.13;;;4.53;;
10293;SDS011;5192;50.328;7.610;2022-10-30T16:58:28;10.50;;;4.97;;
10293;SDS011;5192;50.328;7.610;2022-10-30T17:01:03;9.37;;;4.87;;
10293;SDS011;5192;50.328;7.610;2022-10-30T17:03:39;11.97;;;4.70;;
10293;SDS011;5192;50.328;7.610;2022-10-30T17:06:53;6.73;;;5.10;;
10293;SDS011;5192;50.328;7.610;2022-10-30T17:12:22;10.47;;;5.83;;
10293;SDS011;5192;50.328;7.610;2022-10-30T17:20:43;13.27;;;5.10;;
10293;SDS011;5192;50.328;7.610;2022-10-30T17:23:17;14.73;;;5.73;;
10293;SDS011;5192;50.328;7.610;2022-10-30T17:25:53;8.43;;;5.23;;
10293;SDS011;5192;50.328;7.610;2022-10-30T17:28:27;8.80;;;5.27;;
10293;SDS011;5192;50.328;7.610;2022-10-30T17:36:46;8.37;;;5.77;;
10293;SDS011;5192;50.328;7.610;2022-10-30T17:39:33;6.60;;;5.03;;
10293;SDS011;5192;50.328;7.610;2022-10-30T17:42:01;10.33;;;6.10;;
10293;SDS011;5192;50.328;7.610;2022-10-30T17:44:27;12.97;;;6.47;;
10293;SDS011;5192;50.328;7.610;2022-10-30T17:46:59;15.50;;;7.33;;
10293;SDS011;5192;50.328;7.610;2022-10-30T17:49:34;10.63;;;6.20;;
10293;SDS011;5192;50.328;7.610;2022-10-30T17:52:02;10.37;;;5.40;;
10293;SDS011;5192;50.328;7.610;2022-10-30T17:54:35;9.80;;;5.30;;
10293;SDS011;5192;50.328;7.610;2022-10-30T17:57:02;10.87;;;5.20;;
10293;SDS011;5192;50.328;7.610;2022-10-30T17:59:29;8.70;;;5.30;;
10293;SDS011;5192;50.328;7.610;2022-10-30T18:02:24;8.90;;;5.00;;
10293;SDS011;5192;50.328;7.610;2022-10-30T18:04:54;9.03;;;4.93;;
10293;SDS011;5192;50.328;7.610;2022-10-30T18:07:21;10.80;;;5.10;;
10293;SDS011;5192;50.328;7.610;2022-10-30T18:09:46;13.87;;;7.93;;
10293;SDS011;5192;50.328;7.610;2022-10-30T18:12:14;12.30;;;7.47;;
10293;SDS011;5192;50.328;7.610;2022-10-30T18:14:42;9.60;;;6.37;;
10293;SDS011;5192;50.328;7.610;2022-10-30T18:17:15;10.90;;;6.37;;
10293;SDS011;5192;50.328;7.610;2022-10-30T18:19:42;11.87;;;6.77;;
10293;SDS011;5192;50.328;7.610;2022-10-30T18:22:13;8.60;;;5.23;;
10293;SDS011;5192;50.328;7.610;2022-10-30T18:24:40;10.53;;;5.77;;
10293;SDS011;5192;50.328;7.610;2022-10-30T18:27:16;10.30;;;5.30;;
10293;SDS011;5192;50.328;7.610;2022-10-30T18:29:43;10.13;;;5.33;;
10293;SDS011;5192;50.328;7.610;2022-10-30T18:32:13;12.77;;;6.23;;
10293;SDS011;5192;50.328;7.610;2022-10-30T18:34:40;9.50;;;5.57;;
10293;SDS011;5192;50.328;7.610;2022-10-30T18:37:08;9.83;;;5.53;;
10293;SDS011;5192;50.328;7.610;2022-10-30T18:39:44;11.60;;;5.80;;
10293;SDS011;5192;50.328;7.610;2022-10-30T18:42:15;8.37;;;5.10;;
10293;SDS011;5192;50.328;7.610;2022-10-30T18:44:41;9.23;;;5.47;;
10293;SDS011;5192;50.328;7.610;2022-10-30T18:47:09;9.33;;;5.40;;
10293;SDS011;5192;50.328;7.610;2022-10-30T18:49:41;9.50;;;5.33;;
10293;SDS011;5192;50.328;7.610;2022-10-30T18:52:07;8.70;;;5.73;;
10293;SDS011;5192;50.328;7.610;2022-10-30T18:54:47;6.20;;;4.67;;
10293;SDS011;5192;50.328;7.610;2022-10-30T18:57:31;9.00;;;4.70;;
10293;SDS011;5192;50.328;7.610;2022-10-30T19:00:05;8.73;;;4.47;;
10293;SDS011;5192;50.328;7.610;2022-10-30T19:02:34;8.90;;;4.83;;
10293;SDS011;5192;50.328;7.610;2022-10-30T19:05:11;7.13;;;5.10;;
10293;SDS011;5192;50.328;7.610;2022-10-30T19:07:42;10.47;;;5.10;;